Time;durP1;ratioP1;P1;durP2;ratioP2;P2;SDS_P1;SDS_P2;PMS_P1;PMS_P2;Temp;Humidity;BMP_temperature;BMP_pressure;BME280_temperature;BME280_humidity;BME280_pressure;Samples;Min_cycle;Max_cycle;Signal;HPM_P1;HPM_P2
2022/11/14 00:01:53;;;;;;;24.20;21.77;;;;;;;;;;4958621;28;20236;-85
2022/11/14 00:04:37;;;;;;;26.10;23.13;;;;;;;;;;4968549;28;20295;-84
2022/11/14 00:07:22;;;;;;;27.73;23.40;;;;;;;;;;4985773;28;20228;-83
2022/11/14 00:10:06;;;;;;;25.70;22.20;;;;;;;;;;4972425;28;20236;-82
2022/11/14 00:12:51;;;;;;;25.63;22.83;;;;;;;;;;5008286;28;20240;-81
2022/11/14 00:15:35;;;;;;;25.67;23.17;;;;;;;;;;4973370;28;20232;-83
2022/11/14 00:18:19;;;;;;;25.27;22.57;;;;;;;;;;4994052;28;20237;-82
2022/11/14 00:21:06;;;;;;;25.37;22.77;;;;;;;;;;4994948;28;20243;-84
2022/11/14 00:23:50;;;;;;;27.50;24.53;;;;;;;;;;4977283;28;20236;-82
2022/11/14 00:26:35;;;;;;;25.93;23.27;;;;;;;;;;4978143;28;20344;-84
2022/11/14 00:29:19;;;;;;;27.37;23.17;;;;;;;;;;4980348;28;20941;-82
2022/11/14 00:32:03;;;;;;;23.80;21.30;;;;;;;;;;4973163;28;20296;-85
2022/11/14 00:34:48;;;;;;;25.10;22.63;;;;;;;;;;4984015;28;20239;-85
2022/11/14 00:37:32;;;;;;;24.13;21.73;;;;;;;;;;4987761;28;20288;-85
2022/11/14 00:40:17;;;;;;;26.83;23.13;;;;;;;;;;4971042;28;20298;-84
2022/11/14 00:43:01;;;;;;;26.87;24.03;;;;;;;;;;4965284;28;20275;-85
2022/11/14 00:45:45;;;;;;;26.60;23.77;;;;;;;;;;4970962;28;20299;-86
2022/11/14 00:48:29;;;;;;;24.40;22.10;;;;;;;;;;4977086;28;20252;-83
2022/11/14 00:51:13;;;;;;;28.90;23.63;;;;;;;;;;4965912;28;20856;-83
2022/11/14 00:53:58;;;;;;;25.87;22.83;;;;;;;;;;4997020;28;20228;-83
2022/11/14 00:56:42;;;;;;;27.47;23.97;;;;;;;;;;4971510;28;20228;-84
2022/11/14 00:59:26;;;;;;;25.90;23.10;;;;;;;;;;4965434;28;20240;-85
2022/11/14 01:02:10;;;;;;;25.60;22.33;;;;;;;;;;4983552;28;20228;-87
2022/11/14 01:04:55;;;;;;;26.10;23.43;;;;;;;;;;4970576;28;20236;-83
2022/11/14 01:07:39;;;;;;;26.93;24.07;;;;;;;;;;4954407;28;20785;-83
2022/11/14 01:10:24;;;;;;;26.33;23.60;;;;;;;;;;4961964;28;20287;-84
2022/11/14 01:13:10;;;;;;;25.90;23.20;;;;;;;;;;4963623;28;20235;-83
2022/11/14 01:15:54;;;;;;;25.77;23.13;;;;;;;;;;4968310;28;20236;-81
2022/11/14 01:18:39;;;;;;;26.03;23.13;;;;;;;;;;4994697;28;20263;-83
2022/11/14 01:21:23;;;;;;;25.20;22.53;;;;;;;;;;4977898;28;20239;-81
2022/11/14 01:24:07;;;;;;;27.87;23.87;;;;;;;;;;4977001;28;20229;-81
2022/11/14 01:26:54;;;;;;;29.93;23.23;;;;;;;;;;4971644;28;20285;-83
2022/11/14 01:29:38;;;;;;;26.77;22.67;;;;;;;;;;4994520;28;20216;-82
2022/11/14 01:32:23;;;;;;;25.23;22.53;;;;;;;;;;4990874;28;20305;-82
2022/11/14 01:35:07;;;;;;;25.60;23.13;;;;;;;;;;4967812;28;20232;-86
2022/11/14 01:37:51;;;;;;;28.80;23.27;;;;;;;;;;4959989;28;20321;-84
2022/11/14 01:40:42;;;;;;;26.30;23.43;;;;;;;;;;4981212;28;20275;-82
2022/11/14 01:43:29;;;;;;;26.00;23.23;;;;;;;;;;4979119;28;20257;-83
2022/11/14 01:46:40;;;;;;;24.97;21.50;;;;;;;;;;4985268;28;20236;-83
2022/11/14 01:49:26;;;;;;;29.93;24.77;;;;;;;;;;5013541;28;20244;-83
2022/11/14 01:52:21;;;;;;;25.53;22.83;;;;;;;;;;4958736;28;20231;-82
2022/11/14 01:55:07;;;;;;;26.87;24.07;;;;;;;;;;4961303;28;20363;-83
2022/11/14 01:57:52;;;;;;;30.33;24.40;;;;;;;;;;4981892;28;20236;-82
2022/11/14 02:00:36;;;;;;;29.70;24.97;;;;;;;;;;4966145;28;20245;-84
2022/11/14 02:03:22;;;;;;;27.97;23.93;;;;;;;;;;4970863;28;20227;-81
2022/11/14 02:06:11;;;;;;;27.97;25.07;;;;;;;;;;5004218;28;20260;-81
2022/11/14 02:08:55;;;;;;;27.57;24.30;;;;;;;;;;4982886;28;20293;-83
2022/11/14 02:11:42;;;;;;;30.00;25.53;;;;;;;;;;4967907;28;20317;-85
2022/11/14 02:14:26;;;;;;;26.10;23.37;;;;;;;;;;4962292;28;20229;-85
2022/11/14 02:17:11;;;;;;;30.20;23.87;;;;;;;;;;4961347;28;20249;-84
2022/11/14 02:20:02;;;;;;;27.70;24.17;;;;;;;;;;4955392;28;20232;-84
2022/11/14 02:22:46;;;;;;;27.37;24.43;;;;;;;;;;4992485;28;20228;-84
2022/11/14 02:25:30;;;;;;;28.60;24.77;;;;;;;;;;4958894;28;20245;-85
2022/11/14 02:28:14;;;;;;;29.53;25.53;;;;;;;;;;4950348;28;20252;-85
2022/11/14 02:30:58;;;;;;;28.20;24.77;;;;;;;;;;4953947;28;20276;-84
2022/11/14 02:33:42;;;;;;;27.73;24.90;;;;;;;;;;4965415;28;20264;-84
2022/11/14 02:36:26;;;;;;;30.77;25.80;;;;;;;;;;4965530;28;20225;-84
2022/11/14 02:39:10;;;;;;;27.93;24.83;;;;;;;;;;4979037;28;20267;-85
2022/11/14 02:41:55;;;;;;;28.40;24.87;;;;;;;;;;4963941;28;20233;-85
2022/11/14 02:44:47;;;;;;;32.63;26.47;;;;;;;;;;4978800;28;20284;-82
2022/11/14 02:47:49;;;;;;;28.53;24.47;;;;;;;;;;4958519;28;20271;-84
2022/11/14 02:50:34;;;;;;;29.13;25.67;;;;;;;;;;4961765;28;20428;-81
2022/11/14 02:53:18;;;;;;;31.37;25.87;;;;;;;;;;4960486;28;20228;-84
2022/11/14 02:56:02;;;;;;;30.43;26.73;;;;;;;;;;4975905;28;20725;-84
2022/11/14 02:58:46;;;;;;;32.63;26.17;;;;;;;;;;4949526;28;20244;-84
2022/11/14 03:01:31;;;;;;;32.63;25.40;;;;;;;;;;4960060;28;20689;-84
2022/11/14 03:04:15;;;;;;;31.37;25.83;;;;;;;;;;4994665;28;20236;-82
2022/11/14 03:07:05;;;;;;;29.83;25.37;;;;;;;;;;4981559;28;20765;-85
2022/11/14 03:09:49;;;;;;;30.60;25.37;;;;;;;;;;4969064;28;20284;-86
2022/11/14 03:12:33;;;;;;;31.30;27.03;;;;;;;;;;4965784;28;20236;-82
2022/11/14 03:15:17;;;;;;;31.60;27.40;;;;;;;;;;4973124;28;20298;-83
2022/11/14 03:18:01;;;;;;;36.77;28.13;;;;;;;;;;4965130;28;20253;-82
2022/11/14 03:20:45;;;;;;;31.27;26.57;;;;;;;;;;4971911;28;20256;-82
2022/11/14 03:23:29;;;;;;;34.33;28.40;;;;;;;;;;4968412;28;20255;-82
2022/11/14 03:26:14;;;;;;;31.83;27.87;;;;;;;;;;4978048;28;20246;-82
2022/11/14 03:28:58;;;;;;;30.97;27.50;;;;;;;;;;4977838;28;20228;-81
2022/11/14 03:31:42;;;;;;;33.00;27.40;;;;;;;;;;4985704;28;20220;-81
2022/11/14 03:34:29;;;;;;;32.13;27.70;;;;;;;;;;4979147;28;20240;-81
2022/11/14 03:37:14;;;;;;;33.50;27.60;;;;;;;;;;4979938;28;20228;-84
2022/11/14 03:39:58;;;;;;;36.33;28.50;;;;;;;;;;4990188;28;20359;-87
2022/11/14 03:42:42;;;;;;;31.13;27.70;;;;;;;;;;4962385;28;20232;-85
2022/11/14 03:45:26;;;;;;;32.23;28.70;;;;;;;;;;4979505;28;20284;-87
2022/11/14 03:48:10;;;;;;;34.17;28.30;;;;;;;;;;4983547;28;20236;-84
2022/11/14 03:50:55;;;;;;;31.37;27.33;;;;;;;;;;4960767;28;20220;-87
2022/11/14 03:53:38;;;;;;;31.97;26.17;;;;;;;;;;4969676;28;20649;-86
2022/11/14 03:56:23;;;;;;;33.03;26.33;;;;;;;;;;4982429;28;20228;-86
2022/11/14 03:59:10;;;;;;;32.87;28.40;;;;;;;;;;4964840;28;20339;-86
2022/11/14 04:01:55;;;;;;;31.63;27.60;;;;;;;;;;4973653;28;20240;-87
2022/11/14 04:04:41;;;;;;;31.47;27.37;;;;;;;;;;4981118;28;20305;-83
2022/11/14 04:07:25;;;;;;;32.73;26.50;;;;;;;;;;4981766;28;20240;-83
2022/11/14 04:10:09;;;;;;;31.40;28.03;;;;;;;;;;4966960;28;20938;-84
2022/11/14 04:12:56;;;;;;;32.57;28.57;;;;;;;;;;4968347;28;20239;-86
2022/11/14 04:15:40;;;;;;;31.37;26.60;;;;;;;;;;4979166;28;20239;-87
2022/11/14 04:18:25;;;;;;;35.03;28.53;;;;;;;;;;4977793;28;20224;-86
2022/11/14 04:21:09;;;;;;;37.47;28.37;;;;;;;;;;4967242;28;20325;-82
2022/11/14 04:23:53;;;;;;;33.43;28.07;;;;;;;;;;4982009;28;20292;-86
2022/11/14 04:26:37;;;;;;;31.77;28.40;;;;;;;;;;4981138;28;20240;-87
2022/11/14 04:29:21;;;;;;;31.63;27.83;;;;;;;;;;4981253;28;20256;-84
2022/11/14 04:32:06;;;;;;;35.13;27.67;;;;;;;;;;4979454;28;20228;-84
2022/11/14 04:34:50;;;;;;;32.03;27.50;;;;;;;;;;4965130;23;20819;-74
2022/11/14 04:37:34;;;;;;;32.40;27.67;;;;;;;;;;4980206;28;20717;-74
2022/11/14 04:40:18;;;;;;;34.33;29.47;;;;;;;;;;4976267;28;20388;-74
2022/11/14 04:43:05;;;;;;;31.83;27.93;;;;;;;;;;4981406;28;20275;-74
2022/11/14 04:45:49;;;;;;;34.17;27.97;;;;;;;;;;4982277;28;20237;-74
2022/11/14 04:48:33;;;;;;;33.73;28.97;;;;;;;;;;4970274;28;20249;-74
2022/11/14 04:51:18;;;;;;;38.07;29.00;;;;;;;;;;4954932;28;20657;-74
2022/11/14 04:54:02;;;;;;;33.77;29.40;;;;;;;;;;4964648;28;20268;-74
2022/11/14 04:56:48;;;;;;;35.03;28.20;;;;;;;;;;4965919;28;20221;-74
2022/11/14 04:59:35;;;;;;;31.40;28.07;;;;;;;;;;4951138;28;20232;-74
2022/11/14 05:02:19;;;;;;;30.37;26.87;;;;;;;;;;4949447;28;20224;-74
2022/11/14 05:05:03;;;;;;;34.10;27.40;;;;;;;;;;4964964;28;20240;-74
2022/11/14 05:07:47;;;;;;;33.70;27.90;;;;;;;;;;4943479;28;20293;-73
2022/11/14 05:10:31;;;;;;;30.87;27.40;;;;;;;;;;4965947;28;20280;-73
2022/11/14 05:13:15;;;;;;;35.03;29.37;;;;;;;;;;4943654;28;20304;-74
2022/11/14 05:16:00;;;;;;;30.93;27.40;;;;;;;;;;4952887;28;20276;-72
2022/11/14 05:18:47;;;;;;;34.57;28.73;;;;;;;;;;4965030;28;20232;-74
2022/11/14 05:21:33;;;;;;;38.73;29.03;;;;;;;;;;4940901;28;20232;-74
2022/11/14 05:24:18;;;;;;;34.00;27.87;;;;;;;;;;4956162;28;20249;-75
2022/11/14 05:27:02;;;;;;;34.53;29.00;;;;;;;;;;4934933;28;20303;-75
2022/11/14 05:29:55;;;;;;;32.00;27.70;;;;;;;;;;4955853;28;20236;-71
2022/11/14 05:32:39;;;;;;;32.53;28.60;;;;;;;;;;4952386;28;20332;-74
2022/11/14 05:35:26;;;;;;;34.27;29.07;;;;;;;;;;4956431;28;20257;-75
2022/11/14 05:38:11;;;;;;;35.87;28.63;;;;;;;;;;4916344;28;20964;-74
2022/11/14 05:40:55;;;;;;;32.03;28.57;;;;;;;;;;4945730;28;20325;-75
2022/11/14 05:43:42;;;;;;;36.90;30.47;;;;;;;;;;4954598;28;20613;-75
2022/11/14 05:46:26;;;;;;;33.80;28.83;;;;;;;;;;4949309;28;20275;-74
2022/11/14 05:49:12;;;;;;;36.00;29.40;;;;;;;;;;4932819;28;20317;-74
2022/11/14 05:51:59;;;;;;;32.00;28.03;;;;;;;;;;4939895;28;20221;-75
2022/11/14 05:54:43;;;;;;;35.13;30.13;;;;;;;;;;4956660;28;20655;-75
2022/11/14 05:57:29;;;;;;;32.30;28.63;;;;;;;;;;4940738;28;20248;-74
2022/11/14 06:00:14;;;;;;;35.57;29.20;;;;;;;;;;4956912;28;20252;-74
2022/11/14 06:03:00;;;;;;;33.40;28.60;;;;;;;;;;4939313;28;20260;-74
2022/11/14 06:05:44;;;;;;;35.50;28.80;;;;;;;;;;4948739;28;20241;-74
2022/11/14 06:08:29;;;;;;;37.53;28.50;;;;;;;;;;4937250;28;20240;-74
2022/11/14 06:11:17;;;;;;;32.87;29.30;;;;;;;;;;4958175;28;20276;-74
2022/11/14 06:14:02;;;;;;;35.07;29.57;;;;;;;;;;4949790;28;20237;-73
2022/11/14 06:16:46;;;;;;;35.07;29.80;;;;;;;;;;4969331;28;20276;-76
2022/11/14 06:19:30;;;;;;;35.07;29.60;;;;;;;;;;4959036;28;20248;-72
2022/11/14 06:22:15;;;;;;;41.93;30.83;;;;;;;;;;4971879;28;20236;-73
2022/11/14 06:24:59;;;;;;;34.70;29.20;;;;;;;;;;4959562;28;20233;-74
2022/11/14 06:27:43;;;;;;;33.60;29.83;;;;;;;;;;4958691;28;20228;-75
2022/11/14 06:30:29;;;;;;;34.77;28.37;;;;;;;;;;4946200;28;20577;-74
2022/11/14 06:33:13;;;;;;;33.30;27.80;;;;;;;;;;4961488;28;20764;-75
2022/11/14 06:35:59;;;;;;;35.37;29.80;;;;;;;;;;4932911;28;20356;-75
2022/11/14 06:38:43;;;;;;;33.77;29.23;;;;;;;;;;4949945;28;20707;-72
2022/11/14 06:41:27;;;;;;;38.53;30.57;;;;;;;;;;4950128;28;20229;-75
2022/11/14 06:44:11;;;;;;;33.93;28.30;;;;;;;;;;4957753;28;20228;-73
2022/11/14 06:47:00;;;;;;;33.57;28.37;;;;;;;;;;4948683;28;20236;-74
2022/11/14 06:49:44;;;;;;;34.27;28.53;;;;;;;;;;4964178;28;20646;-74
2022/11/14 06:52:29;;;;;;;35.73;30.30;;;;;;;;;;4950988;28;20241;-74
2022/11/14 06:55:16;;;;;;;36.70;29.53;;;;;;;;;;4967862;28;20241;-74
2022/11/14 06:58:00;;;;;;;38.67;29.10;;;;;;;;;;4959759;28;20232;-73
2022/11/14 07:00:44;;;;;;;36.67;29.37;;;;;;;;;;4953159;28;20295;-74
2022/11/14 07:03:30;;;;;;;35.23;29.77;;;;;;;;;;4951820;28;20249;-74
2022/11/14 07:06:17;;;;;;;34.70;29.70;;;;;;;;;;4958600;28;20276;-73
2022/11/14 07:09:04;;;;;;;31.53;27.37;;;;;;;;;;4949603;28;20292;-74
2022/11/14 07:11:48;;;;;;;33.43;29.20;;;;;;;;;;4953091;28;20608;-74
2022/11/14 07:14:32;;;;;;;39.10;30.17;;;;;;;;;;4951498;28;20264;-74
2022/11/14 07:17:16;;;;;;;41.23;30.87;;;;;;;;;;4957666;28;20261;-74
2022/11/14 07:20:03;;;;;;;34.50;28.47;;;;;;;;;;4956211;28;20264;-73
2022/11/14 07:22:47;;;;;;;35.30;30.10;;;;;;;;;;4966079;28;20305;-73
2022/11/14 07:25:31;;;;;;;37.03;29.03;;;;;;;;;;4966955;28;20361;-73
2022/11/14 07:28:16;;;;;;;35.47;29.40;;;;;;;;;;4943525;28;20219;-73
2022/11/14 07:31:06;;;;;;;35.17;30.30;;;;;;;;;;4946567;28;20244;-75
2022/11/14 07:33:53;;;;;;;37.03;28.03;;;;;;;;;;4935684;28;20313;-71
2022/11/14 07:36:39;;;;;;;34.63;28.37;;;;;;;;;;4966175;28;20345;-72
2022/11/14 07:39:23;;;;;;;29.80;26.57;;;;;;;;;;4954090;28;20253;-73
2022/11/14 07:42:08;;;;;;;33.10;28.40;;;;;;;;;;4951130;28;20651;-72
2022/11/14 07:44:52;;;;;;;36.93;29.53;;;;;;;;;;4970659;28;20253;-74
2022/11/14 07:47:36;;;;;;;34.17;28.97;;;;;;;;;;4945926;28;20243;-71
2022/11/14 07:50:21;;;;;;;34.70;27.17;;;;;;;;;;4955683;28;20288;-73
2022/11/14 07:53:05;;;;;;;34.10;26.67;;;;;;;;;;4956219;28;20349;-72
2022/11/14 07:55:52;;;;;;;30.17;26.90;;;;;;;;;;4947162;28;20619;-73
2022/11/14 07:58:36;;;;;;;29.17;25.67;;;;;;;;;;4976080;28;20330;-75
2022/11/14 08:01:20;;;;;;;28.17;25.27;;;;;;;;;;4973135;28;20248;-72
2022/11/14 08:04:04;;;;;;;36.53;27.07;;;;;;;;;;4956261;28;20264;-72
2022/11/14 08:06:48;;;;;;;32.53;27.30;;;;;;;;;;4956252;28;20221;-72
2022/11/14 08:09:35;;;;;;;31.73;26.50;;;;;;;;;;4965501;28;20312;-75
2022/11/14 08:12:21;;;;;;;34.67;27.23;;;;;;;;;;4949851;28;20244;-74
2022/11/14 08:15:07;;;;;;;28.90;24.63;;;;;;;;;;4951050;28;20587;-73
2022/11/14 08:17:54;;;;;;;28.67;25.70;;;;;;;;;;4958307;28;20256;-73
2022/11/14 08:20:38;;;;;;;28.70;25.70;;;;;;;;;;4936762;28;20742;-72
2022/11/14 08:23:22;;;;;;;29.57;25.27;;;;;;;;;;4948597;28;20265;-71
2022/11/14 08:26:09;;;;;;;27.00;24.10;;;;;;;;;;4951586;28;20236;-72
2022/11/14 08:28:53;;;;;;;29.63;25.13;;;;;;;;;;4968117;28;20647;-72
2022/11/14 08:31:37;;;;;;;29.80;26.53;;;;;;;;;;4948996;28;20892;-73
2022/11/14 08:34:24;;;;;;;29.97;26.00;;;;;;;;;;4944187;28;20272;-73
2022/11/14 08:37:08;;;;;;;30.23;26.20;;;;;;;;;;4973120;28;20273;-75
2022/11/14 08:39:52;;;;;;;31.43;26.67;;;;;;;;;;4952984;28;20228;-74
2022/11/14 08:42:38;;;;;;;31.17;26.17;;;;;;;;;;4950268;28;20248;-74
2022/11/14 08:45:25;;;;;;;29.20;26.10;;;;;;;;;;4962022;28;20348;-73
2022/11/14 08:48:12;;;;;;;30.30;25.30;;;;;;;;;;4963410;28;20276;-73
2022/11/14 08:51:00;;;;;;;26.17;23.17;;;;;;;;;;4935155;28;20268;-72
2022/11/14 08:53:47;;;;;;;28.00;25.03;;;;;;;;;;4944824;28;20248;-73
2022/11/14 08:56:32;;;;;;;25.97;23.17;;;;;;;;;;4960078;28;20763;-73
2022/11/14 08:59:20;;;;;;;27.10;24.23;;;;;;;;;;4952896;28;20237;-73
2022/11/14 09:02:05;;;;;;;24.30;21.80;;;;;;;;;;4943609;28;20287;-72
2022/11/14 09:04:49;;;;;;;29.03;24.30;;;;;;;;;;4952867;28;20222;-74
2022/11/14 09:07:33;;;;;;;26.83;22.67;;;;;;;;;;4948925;28;20232;-73
2022/11/14 09:10:17;;;;;;;28.17;23.37;;;;;;;;;;4950471;28;20735;-74
2022/11/14 09:13:02;;;;;;;30.60;24.53;;;;;;;;;;4938098;28;20296;-73
2022/11/14 09:15:47;;;;;;;28.20;24.63;;;;;;;;;;4927118;28;20743;-73
2022/11/14 09:18:31;;;;;;;25.97;23.17;;;;;;;;;;4954390;28;20637;-73
2022/11/14 09:21:15;;;;;;;26.73;23.57;;;;;;;;;;4953066;28;20253;-73
2022/11/14 09:24:02;;;;;;;28.93;24.20;;;;;;;;;;4958772;28;20283;-73
2022/11/14 09:26:48;;;;;;;25.20;22.50;;;;;;;;;;4944651;28;20264;-72
2022/11/14 09:29:32;;;;;;;25.87;22.80;;;;;;;;;;4958072;28;20233;-70
2022/11/14 09:32:18;;;;;;;26.13;22.63;;;;;;;;;;4949642;28;20268;-72
2022/11/14 09:35:05;;;;;;;25.30;21.90;;;;;;;;;;4953741;28;20731;-73
2022/11/14 09:37:59;;;;;;;24.03;21.43;;;;;;;;;;4961715;28;20264;-75
2022/11/14 09:41:09;;;;;;;26.40;22.27;;;;;;;;;;4957936;28;20249;-72
2022/11/14 09:44:19;;;;;;;24.57;20.63;;;;;;;;;;4957613;28;20261;-73
2022/11/14 09:47:20;;;;;;;24.50;21.30;;;;;;;;;;4975492;28;20842;-73
2022/11/14 09:50:15;;;;;;;24.60;21.80;;;;;;;;;;4937995;28;20230;-73
2022/11/14 09:53:32;;;;;;;25.10;22.47;;;;;;;;;;4947404;28;20627;-73
2022/11/14 09:56:22;;;;;;;25.57;22.17;;;;;;;;;;4898517;28;20269;-74
2022/11/14 09:59:09;;;;;;;27.03;22.87;;;;;;;;;;4949903;28;20300;-75
2022/11/14 10:02:30;;;;;;;24.43;21.80;;;;;;;;;;4930858;28;20228;-73
2022/11/14 10:05:38;;;;;;;24.83;22.23;;;;;;;;;;4979047;28;20660;-73
2022/11/14 10:08:36;;;;;;;23.07;20.70;;;;;;;;;;4954181;28;20240;-73
2022/11/14 10:11:43;;;;;;;24.57;21.80;;;;;;;;;;4959410;28;20234;-73
2022/11/14 10:14:39;;;;;;;24.67;21.97;;;;;;;;;;4967002;28;20263;-72
2022/11/14 10:17:35;;;;;;;24.57;22.03;;;;;;;;;;4960048;28;20317;-73
2022/11/14 10:20:43;;;;;;;23.57;21.10;;;;;;;;;;4942432;28;20233;-72
2022/11/14 10:23:51;;;;;;;24.27;20.57;;;;;;;;;;4964130;28;20224;-74
2022/11/14 10:26:37;;;;;;;26.03;21.03;;;;;;;;;;4987943;28;20714;-73
2022/11/14 10:29:40;;;;;;;25.00;22.43;;;;;;;;;;4991526;28;20792;-73
2022/11/14 10:32:30;;;;;;;22.37;19.97;;;;;;;;;;4997116;28;20291;-74
2022/11/14 10:35:20;;;;;;;23.57;20.83;;;;;;;;;;4971091;28;20228;-73
2022/11/14 10:38:14;;;;;;;24.60;21.60;;;;;;;;;;4960755;28;20243;-74
2022/11/14 10:41:01;;;;;;;22.83;20.30;;;;;;;;;;4995397;28;20227;-73
2022/11/14 10:43:51;;;;;;;22.57;20.07;;;;;;;;;;4984829;28;21965;-74
2022/11/14 10:46:40;;;;;;;21.30;19.03;;;;;;;;;;4968594;28;20228;-73
2022/11/14 10:49:28;;;;;;;21.53;19.20;;;;;;;;;;4964439;28;20228;-73
2022/11/14 10:52:17;;;;;;;21.63;19.53;;;;;;;;;;4988931;28;20722;-74
2022/11/14 10:55:12;;;;;;;22.00;19.67;;;;;;;;;;4973529;28;20670;-74
2022/11/14 10:57:56;;;;;;;20.83;18.83;;;;;;;;;;4967936;28;20260;-73
2022/11/14 11:00:41;;;;;;;21.43;19.23;;;;;;;;;;4977799;28;20255;-73
2022/11/14 11:03:40;;;;;;;21.40;19.30;;;;;;;;;;4960798;28;20231;-74
2022/11/14 11:06:25;;;;;;;21.93;19.10;;;;;;;;;;4988537;28;20223;-73
2022/11/14 11:12:21;;;;;;;21.83;19.60;;;;;;;;;;4986756;28;20232;-72
2022/11/14 11:15:19;;;;;;;21.53;19.33;;;;;;;;;;4953361;28;20251;-73
2022/11/14 11:18:05;;;;;;;21.40;18.83;;;;;;;;;;4995228;28;20240;-73
2022/11/14 11:21:10;;;;;;;20.87;18.70;;;;;;;;;;4961684;28;20893;-74
2022/11/14 11:23:55;;;;;;;21.63;19.53;;;;;;;;;;4993957;28;20611;-72
2022/11/14 11:26:39;;;;;;;20.77;18.57;;;;;;;;;;4973259;28;20240;-74
2022/11/14 11:29:26;;;;;;;21.17;18.93;;;;;;;;;;4988034;28;20726;-73
2022/11/14 11:32:10;;;;;;;20.93;18.43;;;;;;;;;;4995286;28;20244;-73
2022/11/14 11:35:01;;;;;;;24.87;18.77;;;;;;;;;;4970932;28;20227;-73
2022/11/14 11:37:53;;;;;;;19.00;17.27;;;;;;;;;;4989292;28;20263;-73
2022/11/14 11:40:40;;;;;;;18.23;16.37;;;;;;;;;;4951810;28;20245;-73
2022/11/14 11:43:59;;;;;;;21.03;17.60;;;;;;;;;;4986945;28;20244;-74
2022/11/14 11:46:43;;;;;;;18.80;16.43;;;;;;;;;;4964438;28;20280;-73
2022/11/14 11:49:36;;;;;;;19.10;16.13;;;;;;;;;;4995141;28;20240;-73
2022/11/14 11:52:45;;;;;;;18.47;16.67;;;;;;;;;;4993358;28;20267;-73
2022/11/14 11:55:33;;;;;;;18.63;15.63;;;;;;;;;;4970662;28;20287;-74
2022/11/14 11:58:28;;;;;;;19.57;16.30;;;;;;;;;;4981678;28;20685;-72
2022/11/14 12:01:13;;;;;;;17.83;15.93;;;;;;;;;;4963668;28;20828;-73
2022/11/14 12:03:57;;;;;;;17.83;16.03;;;;;;;;;;4974183;28;20271;-75
2022/11/14 12:06:45;;;;;;;17.80;16.00;;;;;;;;;;4965594;28;20239;-73
2022/11/14 12:09:33;;;;;;;16.83;15.07;;;;;;;;;;4966522;28;20232;-72
2022/11/14 12:12:19;;;;;;;17.63;15.83;;;;;;;;;;4971151;28;20240;-72
2022/11/14 12:15:17;;;;;;;17.23;15.63;;;;;;;;;;4995056;28;20290;-73
2022/11/14 12:18:17;;;;;;;19.43;16.17;;;;;;;;;;4982081;28;20245;-72
2022/11/14 12:21:22;;;;;;;19.87;15.93;;;;;;;;;;4985313;28;20275;-74
2022/11/14 12:24:19;;;;;;;15.93;14.30;;;;;;;;;;4993600;28;20235;-73
2022/11/14 12:27:48;;;;;;;16.47;14.87;;;;;;;;;;4981728;28;20972;-74
2022/11/14 12:30:32;;;;;;;17.60;15.00;;;;;;;;;;4986301;28;20256;-71
2022/11/14 12:33:49;;;;;;;17.87;15.43;;;;;;;;;;4960580;28;20217;-74
2022/11/14 12:36:35;;;;;;;16.53;14.83;;;;;;;;;;4968620;28;20252;-71
2022/11/14 12:39:29;;;;;;;15.70;14.17;;;;;;;;;;4965034;28;20657;-73
2022/11/14 12:42:18;;;;;;;17.00;15.30;;;;;;;;;;4971149;28;20359;-74
2022/11/14 12:45:03;;;;;;;15.97;14.00;;;;;;;;;;4982804;28;20252;-72
2022/11/14 12:48:20;;;;;;;17.20;15.30;;;;;;;;;;4975845;28;20263;-72
2022/11/14 12:51:26;;;;;;;15.80;14.20;;;;;;;;;;4979961;28;20268;-74
2022/11/14 12:54:44;;;;;;;16.87;15.07;;;;;;;;;;4984180;28;20268;-74
2022/11/14 12:57:46;;;;;;;16.93;14.53;;;;;;;;;;4975982;28;20261;-71
2022/11/14 13:00:35;;;;;;;15.83;14.30;;;;;;;;;;4965202;28;20327;-73
2022/11/14 13:03:39;;;;;;;17.43;15.47;;;;;;;;;;4982824;28;20267;-72
2022/11/14 13:06:25;;;;;;;17.33;15.73;;;;;;;;;;4993600;28;20295;-73
2022/11/14 13:09:26;;;;;;;17.87;16.07;;;;;;;;;;4983965;28;20228;-74
2022/11/14 13:22:13;;;;;;;16.57;14.87;;;;;;;;;;4991192;28;20294;-72
2022/11/14 13:25:00;;;;;;;18.87;15.73;;;;;;;;;;4994097;28;20237;-72
2022/11/14 13:27:46;;;;;;;17.97;15.87;;;;;;;;;;4995704;28;20235;-74
2022/11/14 13:31:14;;;;;;;17.97;16.17;;;;;;;;;;4953816;28;20309;-74
2022/11/14 13:33:59;;;;;;;17.30;15.57;;;;;;;;;;4991934;28;20319;-73
2022/11/14 13:36:46;;;;;;;18.70;15.17;;;;;;;;;;4956131;28;20280;-74
2022/11/14 13:39:37;;;;;;;17.97;16.17;;;;;;;;;;4983548;28;20240;-75
2022/11/14 13:42:30;;;;;;;16.00;14.57;;;;;;;;;;4979296;28;21007;-73
2022/11/14 13:45:36;;;;;;;18.00;15.67;;;;;;;;;;4969399;28;20323;-72
2022/11/14 13:48:50;;;;;;;16.97;15.23;;;;;;;;;;4972416;28;20312;-73
2022/11/14 13:51:39;;;;;;;19.63;15.03;;;;;;;;;;4995885;28;20733;-73
2022/11/14 13:54:23;;;;;;;17.43;15.67;;;;;;;;;;4967585;28;20291;-74
2022/11/14 13:57:37;;;;;;;16.87;15.03;;;;;;;;;;4989639;28;20263;-73
2022/11/14 14:00:22;;;;;;;17.37;15.70;;;;;;;;;;4974306;28;20228;-74
2022/11/14 14:03:09;;;;;;;17.33;15.60;;;;;;;;;;4964329;28;20729;-74
2022/11/14 14:06:17;;;;;;;16.93;15.17;;;;;;;;;;4998621;28;20276;-72
2022/11/14 14:09:20;;;;;;;16.93;15.33;;;;;;;;;;4977097;28;20857;-74
2022/11/14 14:12:27;;;;;;;16.07;14.57;;;;;;;;;;4984320;28;20316;-74
2022/11/14 14:15:36;;;;;;;16.47;14.90;;;;;;;;;;4970684;28;20236;-72
2022/11/14 14:18:27;;;;;;;18.33;14.57;;;;;;;;;;4971245;28;20664;-71
2022/11/14 14:21:25;;;;;;;15.77;14.27;;;;;;;;;;4980665;28;20248;-71
2022/11/14 14:24:46;;;;;;;16.10;14.60;;;;;;;;;;4970198;28;20287;-70
2022/11/14 14:28:08;;;;;;;16.83;15.23;;;;;;;;;;4976240;28;20264;-72
2022/11/14 14:31:05;;;;;;;16.57;14.87;;;;;;;;;;4999158;28;20235;-73
2022/11/14 14:33:52;;;;;;;15.63;14.13;;;;;;;;;;4981125;28;20275;-73
2022/11/14 14:36:39;;;;;;;15.50;14.00;;;;;;;;;;4967533;28;20283;-73
2022/11/14 14:39:26;;;;;;;16.70;15.00;;;;;;;;;;4985935;28;20307;-74
2022/11/14 14:42:14;;;;;;;16.80;15.10;;;;;;;;;;4972896;28;20227;-74
2022/11/14 14:44:58;;;;;;;17.03;15.23;;;;;;;;;;4961055;28;20368;-74
2022/11/14 14:47:44;;;;;;;18.70;15.90;;;;;;;;;;4974088;28;20236;-75
2022/11/14 14:50:40;;;;;;;16.67;15.00;;;;;;;;;;4967527;28;20276;-71
2022/11/14 14:53:33;;;;;;;17.57;15.80;;;;;;;;;;4969414;28;20766;-74
2022/11/14 14:56:20;;;;;;;17.07;15.40;;;;;;;;;;4973829;28;20239;-72
2022/11/14 14:59:22;;;;;;;18.17;16.23;;;;;;;;;;4962712;28;20232;-74
2022/11/14 15:02:12;;;;;;;17.37;15.67;;;;;;;;;;4971876;28;20352;-71
2022/11/14 15:04:56;;;;;;;18.30;16.50;;;;;;;;;;4973379;28;20268;-74
2022/11/14 15:07:41;;;;;;;18.00;16.20;;;;;;;;;;4989276;28;20582;-73
2022/11/14 15:10:31;;;;;;;17.93;16.03;;;;;;;;;;4990875;28;20231;-74
2022/11/14 15:13:17;;;;;;;18.23;16.33;;;;;;;;;;4957250;28;20228;-71
2022/11/14 15:16:07;;;;;;;18.93;16.20;;;;;;;;;;4985355;28;20248;-74
2022/11/14 15:18:52;;;;;;;18.33;16.50;;;;;;;;;;4958654;28;20317;-73
2022/11/14 15:21:38;;;;;;;19.73;17.83;;;;;;;;;;4989984;28;20243;-72
2022/11/14 15:24:23;;;;;;;18.30;16.60;;;;;;;;;;4966834;28;20634;-75
2022/11/14 15:27:36;;;;;;;19.97;17.47;;;;;;;;;;4986064;28;20844;-71
2022/11/14 15:30:34;;;;;;;17.83;16.20;;;;;;;;;;4992834;28;20240;-73
2022/11/14 15:33:32;;;;;;;18.77;16.97;;;;;;;;;;4993130;28;20263;-75
2022/11/14 15:36:16;;;;;;;18.73;16.93;;;;;;;;;;4954349;28;20224;-74
2022/11/14 15:39:25;;;;;;;18.70;16.83;;;;;;;;;;4976705;28;20256;-73
2022/11/14 15:42:27;;;;;;;17.93;16.33;;;;;;;;;;4984684;28;20228;-75
2022/11/14 15:45:24;;;;;;;17.87;16.07;;;;;;;;;;4991599;28;20344;-74
2022/11/14 15:48:20;;;;;;;18.30;16.27;;;;;;;;;;4987089;28;20708;-74
2022/11/14 15:51:04;;;;;;;18.27;16.37;;;;;;;;;;4962211;28;20232;-73
2022/11/14 15:53:48;;;;;;;18.37;16.47;;;;;;;;;;4973577;28;20264;-74
2022/11/14 15:56:34;;;;;;;18.17;16.33;;;;;;;;;;4964953;28;20309;-74
2022/11/14 15:59:21;;;;;;;20.50;16.87;;;;;;;;;;4964614;28;20239;-74
2022/11/14 16:02:22;;;;;;;19.70;16.87;;;;;;;;;;4982443;28;20228;-75
2022/11/14 16:05:06;;;;;;;18.10;16.27;;;;;;;;;;4994812;28;20233;-74
2022/11/14 16:07:50;;;;;;;18.63;16.83;;;;;;;;;;4969719;28;20252;-74
2022/11/14 16:10:34;;;;;;;18.67;16.50;;;;;;;;;;4997853;28;20228;-73
2022/11/14 16:13:18;;;;;;;17.63;15.87;;;;;;;;;;4994011;28;20223;-74
2022/11/14 16:16:07;;;;;;;19.57;17.57;;;;;;;;;;4994038;28;20236;-73
2022/11/14 16:18:51;;;;;;;18.10;16.30;;;;;;;;;;4993403;28;20784;-74
2022/11/14 16:21:36;;;;;;;18.27;16.37;;;;;;;;;;4971079;28;20236;-73
2022/11/14 16:24:21;;;;;;;17.47;15.77;;;;;;;;;;4977528;28;20255;-74
2022/11/14 16:27:05;;;;;;;16.83;15.23;;;;;;;;;;5000323;28;20268;-73
2022/11/14 16:29:50;;;;;;;16.87;15.13;;;;;;;;;;4956680;28;20282;-73
2022/11/14 16:32:34;;;;;;;16.60;14.97;;;;;;;;;;4976140;28;20320;-75
2022/11/14 16:35:23;;;;;;;18.80;17.00;;;;;;;;;;4981308;28;20244;-74